Time;durP1;ratioP1;P1;durP2;ratioP2;P2;SDS_P1;SDS_P2;PMS_P1;PMS_P2;Temp;Humidity;BMP_temperature;BMP_pressure;BME280_temperature;BME280_humidity;BME280_pressure;Samples;Min_cycle;Max_cycle;Signal;HPM_P1;HPM_P2
2021/06/14 00:00:15;;;;;;;6.38;3.70;;;;;;;10.62;78.71;97206.68;127879;1093;22913;-89
2021/06/14 00:03:07;;;;;;;9.18;3.13;;;;;;;10.62;78.95;97199.52;127829;1093;113925;-91
2021/06/14 00:05:40;;;;;;;6.85;3.33;;;;;;;10.60;78.79;97195.55;127902;1093;22816;-90
2021/06/14 00:08:14;;;;;;;10.23;3.75;;;;;;;10.61;79.26;97208.53;127866;1093;26485;-90
2021/06/14 00:10:47;;;;;;;9.40;3.73;;;;;;;10.59;79.17;97201.91;127778;1093;113544;-90
2021/06/14 00:13:19;;;;;;;7.93;3.33;;;;;;;10.59;79.30;97200.05;127870;1093;26232;-92
2021/06/14 00:15:51;;;;;;;7.78;3.60;;;;;;;10.59;79.18;97197.41;127772;1092;114305;-92
2021/06/14 00:18:22;;;;;;;11.35;3.33;;;;;;;10.61;79.25;97199.78;127898;1093;22789;-90
2021/06/14 00:20:58;;;;;;;8.38;3.08;;;;;;;10.59;79.14;97192.09;127759;1092;114322;-90
2021/06/14 00:23:32;;;;;;;5.88;3.48;;;;;;;10.59;79.34;97196.60;127908;1092;22793;-91
2021/06/14 00:26:07;;;;;;;3.85;2.70;;;;;;;10.58;79.32;97193.16;127877;1093;24215;-90
2021/06/14 00:28:39;;;;;;;6.43;3.45;;;;;;;10.58;79.41;97206.42;127820;1093;114159;-89
2021/06/14 00:31:12;;;;;;;6.60;3.20;;;;;;;10.60;79.58;97198.20;127902;1093;33070;-92
2021/06/14 00:33:43;;;;;;;5.10;2.98;;;;;;;10.57;79.75;97199.52;127651;1093;114262;-90
2021/06/14 00:36:14;;;;;;;7.38;3.28;;;;;;;10.53;80.12;97158.67;127888;1092;26471;-90
2021/06/14 00:38:46;;;;;;;5.80;3.27;;;;;;;10.52;80.46;97172.98;127791;1093;113697;-91
2021/06/14 00:41:18;;;;;;;5.95;3.10;;;;;;;10.47;80.56;97196.84;127873;1093;28350;-90
2021/06/14 00:43:50;;;;;;;8.13;3.85;;;;;;;10.46;80.71;97187.30;127879;1092;26148;-90
2021/06/14 00:46:21;;;;;;;7.60;2.90;;;;;;;10.43;80.93;97187.04;127761;1093;113520;-91
2021/06/14 00:48:52;;;;;;;8.08;3.48;;;;;;;10.41;81.02;97192.58;127902;1093;25880;-92
2021/06/14 00:51:24;;;;;;;7.75;3.93;;;;;;;10.42;80.98;97191.55;127760;1093;113898;-91
2021/06/14 00:53:56;;;;;;;9.13;3.70;;;;;;;10.38;81.07;97185.16;127848;1093;23133;-96
2021/06/14 00:56:28;;;;;;;7.43;3.88;;;;;;;10.38;81.11;97191.25;127794;1093;114600;-89
2021/06/14 00:59:00;;;;;;;8.93;3.83;;;;;;;10.37;81.23;97202.12;127783;1091;51720;-90
2021/06/14 01:01:31;;;;;;;10.28;4.20;;;;;;;10.35;81.13;97189.13;127877;1093;22638;-92
2021/06/14 01:04:03;;;;;;;8.30;4.10;;;;;;;10.35;80.83;97206.89;127764;1093;113706;-92
2021/06/14 01:06:34;;;;;;;7.65;3.73;;;;;;;10.36;80.98;97192.58;127823;1093;24103;-91
2021/06/14 01:09:06;;;;;;;9.43;3.68;;;;;;;10.35;80.75;97193.64;127788;1093;114314;-95
2021/06/14 01:11:46;;;;;;;7.45;3.78;;;;;;;10.32;80.83;97187.02;127892;1093;26277;-91
2021/06/14 01:14:24;;;;;;;7.15;3.10;;;;;;;10.31;80.93;97174.03;127732;1093;23487;-90
2021/06/14 01:17:05;;;;;;;6.83;3.90;;;;;;;10.27;81.19;97196.79;127714;1093;113323;-93
2021/06/14 01:20:14;;;;;;;6.28;3.58;;;;;;;10.25;81.04;97197.05;127944;1093;23242;-94
2021/06/14 01:23:16;;;;;;;12.18;4.75;;;;;;;10.25;80.99;97201.55;127651;1093;113494;-90
2021/06/14 01:25:54;;;;;;;9.20;3.83;;;;;;;10.26;81.19;97208.45;127797;1093;25903;-92
2021/06/14 01:28:28;;;;;;;8.85;3.63;;;;;;;10.27;80.98;97213.48;127744;1093;113967;-89
2021/06/14 01:31:02;;;;;;;10.73;4.05;;;;;;;10.29;81.04;97200.00;127858;1093;23442;-91
2021/06/14 01:33:35;;;;;;;7.63;3.70;;;;;;;10.30;80.84;97218.28;127779;1093;114288;-92
2021/06/14 01:36:10;;;;;;;8.98;4.05;;;;;;;10.30;81.12;97207.69;127842;1093;23414;-92
2021/06/14 01:38:45;;;;;;;6.50;3.63;;;;;;;10.30;80.88;97233.39;127766;1093;114471;-90
2021/06/14 01:41:18;;;;;;;8.68;4.03;;;;;;;10.30;80.69;97220.14;127884;1092;41288;-91
2021/06/14 01:43:51;;;;;;;9.20;3.90;;;;;;;10.31;80.55;97229.68;127909;1093;23035;-91
2021/06/14 01:46:26;;;;;;;8.28;3.50;;;;;;;10.33;80.38;97216.96;127730;1093;113782;-91
2021/06/14 01:48:58;;;;;;;8.35;3.35;;;;;;;10.34;80.38;97207.95;127877;1093;24166;-88
2021/06/14 01:51:32;;;;;;;9.13;3.73;;;;;;;10.34;80.26;97215.91;127780;1093;113516;-90
2021/06/14 01:54:04;;;;;;;9.18;3.73;;;;;;;10.32;80.34;97223.32;127920;1093;22796;-89
2021/06/14 01:56:38;;;;;;;9.50;3.35;;;;;;;10.31;80.31;97211.92;127869;1093;113849;-91
2021/06/14 01:59:21;;;;;;;10.68;3.53;;;;;;;10.30;80.48;97223.58;127940;1093;30010;-90
2021/06/14 02:01:54;;;;;;;7.63;3.55;;;;;;;10.30;80.41;97198.94;127896;1093;24409;-89
2021/06/14 02:04:26;;;;;;;6.40;3.50;;;;;;;10.27;80.51;97200.23;127767;1093;113596;-89
2021/06/14 02:06:59;;;;;;;4.23;2.88;;;;;;;10.27;80.78;97188.84;127874;1093;26690;-92
2021/06/14 02:09:31;;;;;;;9.55;3.63;;;;;;;10.24;80.71;97216.66;127753;1093;114074;-89
2021/06/14 02:12:05;;;;;;;8.33;3.23;;;;;;;10.22;80.87;97189.63;127850;1093;26031;-90
2021/06/14 02:14:39;;;;;;;7.78;3.75;;;;;;;10.20;81.02;97217.42;127818;1093;113780;-90
2021/06/14 02:17:14;;;;;;;7.65;3.68;;;;;;;10.18;80.85;97220.33;127899;1092;25909;-93
2021/06/14 02:19:47;;;;;;;6.90;2.75;;;;;;;10.18;81.06;97201.78;127902;1093;23251;-90
2021/06/14 02:22:20;;;;;;;7.70;3.37;;;;;;;10.18;81.09;97195.69;127757;1093;114089;-90
2021/06/14 02:24:52;;;;;;;6.95;3.65;;;;;;;10.17;81.09;97199.41;127853;1093;23481;-92
2021/06/14 02:27:23;;;;;;;7.20;3.65;;;;;;;10.16;81.04;97190.66;127795;1093;113477;-90
2021/06/14 02:29:55;;;;;;;8.08;3.05;;;;;;;10.18;80.85;97206.30;127807;1093;25576;-90
2021/06/14 02:32:26;;;;;;;6.20;2.65;;;;;;;10.20;80.84;97212.91;127866;1093;25005;-91
2021/06/14 02:34:58;;;;;;;5.58;3.10;;;;;;;10.23;80.65;97215.07;127789;1093;113372;-90
2021/06/14 02:37:30;;;;;;;10.75;3.45;;;;;;;10.24;80.33;97227.27;127887;1093;23288;-91
2021/06/14 02:40:02;;;;;;;8.80;3.38;;;;;;;10.25;80.23;97217.45;127725;1092;114344;-91
2021/06/14 02:42:35;;;;;;;7.18;3.40;;;;;;;10.23;80.09;97216.92;127863;1093;24052;-91
2021/06/14 02:45:08;;;;;;;7.88;3.55;;;;;;;10.24;80.20;97237.06;127842;1093;113709;-91
2021/06/14 02:47:41;;;;;;;4.60;2.83;;;;;;;10.27;79.79;97225.94;127966;1093;22792;-90
2021/06/14 02:50:16;;;;;;;7.35;3.70;;;;;;;10.26;79.58;97211.89;127871;1093;27607;-92
2021/06/14 02:52:50;;;;;;;7.23;3.38;;;;;;;10.23;79.84;97224.88;127771;1093;113936;-92
2021/06/14 02:55:28;;;;;;;8.33;3.33;;;;;;;10.24;79.50;97235.21;127871;1093;25111;-91
2021/06/14 02:58:02;;;;;;;8.38;3.38;;;;;;;10.25;79.51;97243.95;127828;1093;113888;-91
2021/06/14 03:00:35;;;;;;;7.28;2.60;;;;;;;10.28;79.41;97238.16;127859;1092;24287;-90
2021/06/14 03:03:08;;;;;;;6.15;2.90;;;;;;;10.27;79.48;97233.89;127837;1093;113838;-90
2021/06/14 03:05:41;;;;;;;12.35;3.63;;;;;;;10.21;79.39;97234.91;127941;1093;23406;-91
2021/06/14 03:08:13;;;;;;;8.23;3.68;;;;;;;10.17;79.69;97237.29;127866;1092;23113;-89
2021/06/14 03:10:45;;;;;;;6.85;3.70;;;;;;;10.16;79.50;97229.60;127808;1093;114033;-90
2021/06/14 03:13:17;;;;;;;7.40;3.48;;;;;;;10.14;80.02;97237.02;127889;1093;26318;-90
2021/06/14 03:15:49;;;;;;;8.23;3.75;;;;;;;10.11;80.17;97233.01;127794;1093;113674;-90
2021/06/14 03:18:23;;;;;;;7.93;3.40;;;;;;;10.11;80.35;97227.71;127891;1093;25033;-91
2021/06/14 03:20:56;;;;;;;6.93;3.40;;;;;;;10.14;80.61;97237.02;127781;1093;112982;-90
2021/06/14 03:23:28;;;;;;;5.43;3.35;;;;;;;10.12;80.46;97234.60;127881;1093;32580;-90
2021/06/14 03:26:00;;;;;;;7.53;3.30;;;;;;;10.14;80.42;97231.72;127862;1091;22825;-90
2021/06/14 03:28:32;;;;;;;9.10;3.67;;;;;;;10.15;80.54;97228.02;127679;1093;113993;-90
2021/06/14 03:31:04;;;;;;;4.85;2.90;;;;;;;10.15;80.46;97228.02;127909;1093;23138;-91
2021/06/14 03:33:36;;;;;;;7.50;3.15;;;;;;;10.15;80.46;97220.86;127773;1092;113489;-91
2021/06/14 03:36:08;;;;;;;7.30;3.50;;;;;;;10.14;80.42;97229.07;127964;1093;22777;-90
2021/06/14 03:38:41;;;;;;;9.00;3.58;;;;;;;10.15;80.38;97228.02;127822;1093;113680;-89
2021/06/14 03:41:12;;;;;;;7.80;3.78;;;;;;;10.15;80.53;97233.31;127883;1093;24037;-92
2021/06/14 03:43:44;;;;;;;9.75;2.95;;;;;;;10.15;80.56;97228.81;127851;1093;26670;-90
2021/06/14 03:46:16;;;;;;;7.45;3.00;;;;;;;10.15;80.38;97236.75;127772;1093;114001;-90
2021/06/14 03:48:47;;;;;;;7.95;2.78;;;;;;;10.20;80.35;97241.27;127824;1093;31642;-90
2021/06/14 03:51:19;;;;;;;7.08;2.90;;;;;;;10.28;80.13;97244.25;127780;1093;114027;-90
2021/06/14 03:53:57;;;;;;;5.38;2.43;;;;;;;10.35;80.25;97236.84;127921;1093;24460;-89
2021/06/14 03:56:30;;;;;;;8.43;3.60;;;;;;;10.40;80.03;97230.75;127874;1093;26981;-90
2021/06/14 03:59:02;;;;;;;9.63;2.93;;;;;;;10.44;79.75;97236.34;127771;1093;115269;-90
2021/06/14 04:01:34;;;;;;;5.87;2.70;;;;;;;10.42;79.47;97241.91;127897;1093;23112;-90
2021/06/14 04:04:23;;;;;;;6.83;3.03;;;;;;;10.43;79.55;97240.05;127788;1092;113650;-88
2021/06/14 04:06:55;;;;;;;7.83;3.10;;;;;;;10.46;79.55;97245.63;127869;1093;24267;-92
2021/06/14 04:09:26;;;;;;;7.05;3.08;;;;;;;10.52;79.39;97233.16;127777;1092;113533;-87
2021/06/14 04:11:58;;;;;;;10.13;3.40;;;;;;;10.54;79.04;97245.09;127895;1093;22889;-88
2021/06/14 04:14:30;;;;;;;5.70;2.55;;;;;;;10.64;79.03;97246.98;127815;1093;22799;-91
2021/06/14 04:17:01;;;;;;;7.58;3.20;;;;;;;10.74;78.65;97243.55;127778;1093;113384;-90
2021/06/14 04:19:33;;;;;;;7.83;3.05;;;;;;;10.81;78.48;97249.39;127909;1093;22795;-89
2021/06/14 04:22:05;;;;;;;5.15;2.85;;;;;;;10.93;78.53;97249.94;127785;1092;113701;-89
2021/06/14 04:24:37;;;;;;;7.60;2.67;;;;;;;11.04;78.38;97248.89;127938;1093;24770;-90
2021/06/14 04:27:09;;;;;;;7.35;3.10;;;;;;;11.19;78.30;97248.09;127813;1092;113846;-90
2021/06/14 04:29:42;;;;;;;5.63;2.90;;;;;;;11.25;77.72;97241.70;127933;1093;22849;-90
2021/06/14 04:32:13;;;;;;;5.90;2.63;;;;;;;11.25;77.27;97239.84;127862;1092;22801;-90
2021/06/14 04:34:45;;;;;;;9.38;3.03;;;;;;;11.29;77.42;97254.20;127794;1093;113530;-89
2021/06/14 04:37:16;;;;;;;6.75;2.85;;;;;;;11.39;77.33;97257.88;127866;1093;22829;-91
2021/06/14 04:39:48;;;;;;;8.00;3.00;;;;;;;11.43;76.81;97249.14;127798;1093;114205;-90
2021/06/14 04:42:19;;;;;;;5.65;3.00;;;;;;;11.40;76.58;97254.16;127903;1093;23275;-89
2021/06/14 04:44:50;;;;;;;7.68;3.30;;;;;;;11.44;76.33;97255.24;127765;1093;114213;-90
2021/06/14 04:47:22;;;;;;;6.58;2.83;;;;;;;11.53;76.24;97253.62;127866;1093;24556;-90
2021/06/14 04:49:53;;;;;;;6.13;2.43;;;;;;;11.55;76.16;97249.66;127881;1093;24383;-88
2021/06/14 04:52:25;;;;;;;7.13;3.03;;;;;;;11.66;76.33;97255.72;127778;1093;113736;-90
2021/06/14 04:54:57;;;;;;;4.35;2.45;;;;;;;11.80;75.81;97256.78;127926;1093;22800;-89
2021/06/14 04:57:28;;;;;;;10.25;3.08;;;;;;;11.87;75.59;97254.66;127801;1092;114190;-91
2021/06/14 04:59:59;;;;;;;5.37;2.80;;;;;;;12.01;75.61;97251.42;127853;1093;22787;-89
2021/06/14 05:02:31;;;;;;;5.23;2.63;;;;;;;12.11;75.15;97259.38;127870;1093;24584;-89
2021/06/14 05:05:02;;;;;;;7.50;2.83;;;;;;;12.11;74.54;97264.69;127602;1093;113321;-90
2021/06/14 05:07:34;;;;;;;6.30;2.78;;;;;;;12.26;75.08;97264.63;127896;1093;24152;-94
2021/06/14 05:10:07;;;;;;;5.10;2.78;;;;;;;12.59;75.11;97254.34;127771;1093;113602;-90
2021/06/14 05:12:39;;;;;;;4.83;2.85;;;;;;;12.70;74.08;97256.68;127950;1093;24757;-89
2021/06/14 05:15:13;;;;;;;7.40;3.40;;;;;;;12.95;74.34;97258.38;127874;1092;114128;-89
2021/06/14 05:17:45;;;;;;;5.05;2.48;;;;;;;13.22;73.21;97254.46;127938;1093;22987;-88
2021/06/14 05:20:17;;;;;;;7.05;3.10;;;;;;;13.22;72.56;97249.14;127891;1093;24145;-89
2021/06/14 05:22:49;;;;;;;6.58;2.78;;;;;;;13.68;72.64;97246.88;127799;1092;114162;-88
2021/06/14 05:25:21;;;;;;;6.73;2.68;;;;;;;14.42;72.63;97258.02;127923;1093;26502;-89
2021/06/14 05:27:52;;;;;;;8.68;2.88;;;;;;;15.29;71.16;97247.68;127774;1093;113638;-89
2021/06/14 05:30:25;;;;;;;7.73;2.33;;;;;;;15.32;68.61;97254.31;127914;1093;27454;-89
2021/06/14 05:32:56;;;;;;;5.20;2.20;;;;;;;15.91;69.03;97253.58;127800;1093;114533;-89
2021/06/14 05:35:28;;;;;;;4.93;2.13;;;;;;;16.59;68.29;97250.03;127931;1092;23411;-89
2021/06/14 05:37:59;;;;;;;5.90;2.40;;;;;;;17.30;66.83;97252.20;127891;1093;23831;-89
2021/06/14 05:40:31;;;;;;;5.43;2.43;;;;;;;17.38;63.47;97240.75;127785;1093;114458;-93
2021/06/14 05:43:03;;;;;;;4.18;1.85;;;;;;;17.49;63.38;97244.77;127589;1092;22817;-92
2021/06/14 05:45:34;;;;;;;5.05;2.53;;;;;;;17.78;62.22;97245.11;127734;1093;114209;-90
2021/06/14 05:48:07;;;;;;;5.43;2.40;;;;;;;17.55;60.21;97235.48;127831;1093;33188;-93
2021/06/14 05:50:38;;;;;;;7.77;2.23;;;;;;;17.60;61.32;97250.67;127971;1092;29514;-87
2021/06/14 05:53:11;;;;;;;4.45;2.38;;;;;;;18.42;60.63;97252.72;127819;1093;113605;-89
2021/06/14 05:55:43;;;;;;;6.63;2.50;;;;;;;18.64;59.78;97254.54;127865;1093;24450;-88
2021/06/14 05:58:14;;;;;;;8.88;2.80;;;;;;;18.09;57.46;97257.69;127796;1093;113976;-92
2021/06/14 06:00:46;;;;;;;6.10;2.55;;;;;;;17.75;58.62;97256.45;127877;1093;22819;-92
2021/06/14 06:03:17;;;;;;;6.83;2.75;;;;;;;17.31;56.82;97259.93;127987;1092;114417;-90
2021/06/14 06:05:48;;;;;;;5.10;2.50;;;;;;;16.49;57.48;97246.80;127919;1093;26379;-89
2021/06/14 06:08:20;;;;;;;6.10;2.33;;;;;;;16.61;58.29;97258.58;127928;1093;25251;-88
2021/06/14 06:10:51;;;;;;;5.35;2.35;;;;;;;17.39;59.75;97261.89;127795;1093;114013;-87
2021/06/14 06:13:23;;;;;;;6.20;2.83;;;;;;;18.15;58.84;97251.06;127883;1093;24412;-89
2021/06/14 06:15:54;;;;;;;6.83;2.38;;;;;;;18.78;58.63;97251.70;128011;1092;114075;-88
2021/06/14 06:18:26;;;;;;;4.95;2.45;;;;;;;19.08;55.64;97241.91;127866;1092;25493;-91
2021/06/14 06:20:57;;;;;;;8.15;2.30;;;;;;;19.16;55.66;97249.19;127873;1093;114079;-87
2021/06/14 06:23:29;;;;;;;7.23;2.40;;;;;;;19.93;55.72;97248.22;128110;1091;29995;-88
2021/06/14 06:26:01;;;;;;;4.08;1.98;;;;;;;20.37;53.50;97240.73;127963;1093;24945;-88
2021/06/14 06:28:32;;;;;;;6.95;2.38;;;;;;;20.06;52.58;97228.38;128134;1093;114063;-88
2021/06/14 06:31:04;;;;;;;4.50;2.00;;;;;;;20.32;52.86;97238.23;127910;1092;22871;-88
2021/06/14 06:33:35;;;;;;;5.48;2.30;;;;;;;20.70;52.77;97233.58;127848;1093;113749;-85
2021/06/14 06:36:07;;;;;;;5.48;2.10;;;;;;;20.55;50.67;97244.94;127870;1093;23950;-90
2021/06/14 06:38:38;;;;;;;5.25;2.10;;;;;;;20.18;48.18;97238.46;127959;1093;23437;-92
2021/06/14 06:41:10;;;;;;;7.20;2.23;;;;;;;19.86;50.22;97239.88;127809;1093;114011;-90
2021/06/14 06:43:41;;;;;;;6.63;2.38;;;;;;;20.58;51.55;97246.98;127931;1093;25624;-90
2021/06/14 06:46:13;;;;;;;5.40;2.10;;;;;;;20.70;49.82;97236.27;127751;1093;114392;-90
2021/06/14 06:48:44;;;;;;;7.45;2.33;;;;;;;20.84;48.89;97233.32;127904;1093;22799;-88
2021/06/14 06:51:16;;;;;;;5.58;2.08;;;;;;;20.41;47.51;97225.52;127840;1093;114690;-88
2021/06/14 06:53:47;;;;;;;6.10;2.43;;;;;;;20.16;49.24;97235.31;127996;1093;28496;-88
2021/06/14 06:56:19;;;;;;;6.25;2.33;;;;;;;20.67;49.94;97228.83;127978;1093;22851;-88
2021/06/14 06:58:50;;;;;;;4.63;2.13;;;;;;;20.98;48.75;97228.45;127676;1093;113509;-87
2021/06/14 07:01:22;;;;;;;3.98;2.05;;;;;;;21.39;49.68;97220.63;127895;1093;29238;-89
2021/06/14 07:03:53;;;;;;;3.35;2.10;;;;;;;21.78;48.78;97222.73;127821;1093;114018;-88
2021/06/14 07:06:25;;;;;;;5.03;2.43;;;;;;;21.70;46.94;97231.73;127868;1093;55308;-89
2021/06/14 07:08:58;;;;;;;4.45;2.23;;;;;;;21.60;47.21;97229.45;127824;1093;114447;-89
2021/06/14 07:11:30;;;;;;;5.10;2.43;;;;;;;21.80;47.06;97220.48;127869;1093;25427;-90
2021/06/14 07:14:03;;;;;;;4.80;1.75;;;;;;;21.52;46.80;97219.53;127969;1093;22858;-90
2021/06/14 07:16:35;;;;;;;6.83;2.33;;;;;;;20.63;45.78;97230.61;127824;1093;114071;-89
2021/06/14 07:19:06;;;;;;;4.00;1.90;;;;;;;20.18;46.78;97225.00;127871;1093;29531;-90
2021/06/14 07:21:37;;;;;;;7.65;2.35;;;;;;;20.27;47.47;97230.32;127782;1093;114171;-92
2021/06/14 07:24:10;;;;;;;5.95;2.10;;;;;;;21.06;48.71;97221.39;128009;1093;22819;-90
2021/06/14 07:26:42;;;;;;;5.88;2.28;;;;;;;21.34;45.13;97216.23;128007;1091;47893;-91
2021/06/14 07:29:13;;;;;;;4.55;2.25;;;;;;;21.01;46.75;97217.00;127838;1093;113380;-90
2021/06/14 07:31:45;;;;;;;6.18;1.93;;;;;;;20.85;45.53;97218.73;127707;1092;49534;-90
2021/06/14 07:34:16;;;;;;;4.75;2.05;;;;;;;20.47;46.79;97229.61;127897;1092;113808;-90
2021/06/14 07:36:48;;;;;;;6.03;2.28;;;;;;;21.18;48.37;97220.66;128139;1092;27844;-91
2021/06/14 07:39:19;;;;;;;6.20;2.20;;;;;;;22.25;48.64;97221.56;128031;1092;113666;-93
2021/06/14 07:41:51;;;;;;;7.15;2.38;;;;;;;22.55;44.57;97222.08;128084;1092;43018;-89
2021/06/14 07:44:22;;;;;;;7.78;2.30;;;;;;;21.67;45.57;97237.77;128103;1093;26428;-96
2021/06/14 07:46:54;;;;;;;6.28;2.58;;;;;;;21.58;46.08;97227.09;127954;1091;113554;-95
2021/06/14 07:49:26;;;;;;;5.23;2.45;;;;;;;20.74;44.44;97237.19;127922;1092;30588;-95
2021/06/14 07:52:00;;;;;;;5.88;2.20;;;;;;;20.29;47.04;97220.04;127864;1092;113687;-94
2021/06/14 07:54:32;;;;;;;8.23;2.48;;;;;;;20.94;47.46;97216.73;128015;1092;42417;-90
2021/06/14 07:57:04;;;;;;;4.30;2.25;;;;;;;21.19;44.48;97222.22;127836;1093;114461;-90
2021/06/14 07:59:36;;;;;;;7.77;2.53;;;;;;;20.26;45.87;97239.52;127877;1093;27658;-91
2021/06/14 08:02:08;;;;;;;3.30;2.33;;;;;;;19.85;47.24;97239.09;128022;1093;25378;-91
2021/06/14 08:04:40;;;;;;;4.98;2.63;;;;;;;20.25;48.85;97241.42;127784;1093;114084;-94
2021/06/14 08:07:11;;;;;;;4.80;2.20;;;;;;;20.94;46.78;97232.90;127794;1092;25990;-95
2021/06/14 08:09:44;;;;;;;5.88;2.25;;;;;;;20.93;46.98;97241.32;127838;1093;113539;-91
2021/06/14 08:12:16;;;;;;;5.45;2.45;;;;;;;20.49;46.23;97237.36;127813;1093;25499;-91
2021/06/14 08:14:47;;;;;;;5.30;2.70;;;;;;;20.33;47.28;97245.98;127860;1093;34237;-93
2021/06/14 08:17:19;;;;;;;6.80;2.40;;;;;;;20.09;47.14;97246.56;127769;1093;113564;-89
2021/06/14 08:19:53;;;;;;;5.98;2.30;;;;;;;19.96;48.75;97244.88;127879;1093;25444;-91
2021/06/14 08:22:37;;;;;;;5.50;2.88;;;;;;;20.41;48.42;97244.37;127739;1092;113541;-90
2021/06/14 08:25:11;;;;;;;5.63;2.25;;;;;;;21.38;48.99;97240.63;127975;1093;24795;-91
2021/06/14 08:27:45;;;;;;;4.43;2.20;;;;;;;21.57;46.75;97222.03;127731;1093;113520;-90
2021/06/14 08:30:23;;;;;;;4.65;2.23;;;;;;;21.29;45.91;97224.55;127920;1093;26966;-91
2021/06/14 08:32:55;;;;;;;5.23;2.50;;;;;;;20.66;46.80;97237.23;127719;1092;26108;-93
2021/06/14 08:35:28;;;;;;;5.68;2.63;;;;;;;20.17;46.56;97234.19;127703;1093;113358;-90
2021/06/14 08:38:01;;;;;;;6.63;2.58;;;;;;;19.48;47.52;97237.11;127852;1093;26822;-91
2021/06/14 08:40:36;;;;;;;4.63;2.40;;;;;;;19.39;49.46;97244.39;127706;1093;113443;-91
2021/06/14 08:43:08;;;;;;;5.50;2.55;;;;;;;20.25;49.83;97243.32;127907;1093;23870;-91
2021/06/14 08:45:43;;;;;;;6.97;2.73;;;;;;;20.73;48.74;97248.30;127867;1092;113606;-90
2021/06/14 08:48:16;;;;;;;7.15;2.95;;;;;;;20.44;47.41;97235.66;127863;1093;57003;-90
2021/06/14 08:50:48;;;;;;;7.75;2.48;;;;;;;20.12;48.22;97237.84;127818;1092;47571;-91
2021/06/14 08:53:20;;;;;;;5.65;2.25;;;;;;;20.23;49.33;97240.17;127802;1093;113517;-89
2021/06/14 08:55:51;;;;;;;4.60;2.33;;;;;;;20.29;48.44;97222.73;128176;1093;26540;-90
2021/06/14 08:58:23;;;;;;;4.45;2.50;;;;;;;20.09;49.60;97235.02;128015;1092;114005;-91
2021/06/14 09:00:55;;;;;;;6.53;2.60;;;;;;;20.34;49.14;97236.78;128119;1092;25540;-89
2021/06/14 09:03:29;;;;;;;6.83;3.00;;;;;;;20.12;47.66;97237.84;128042;1093;113826;-91
2021/06/14 09:06:01;;;;;;;6.73;3.45;;;;;;;19.59;47.80;97226.83;128011;1092;26928;-90
2021/06/14 09:08:32;;;;;;;5.83;2.68;;;;;;;18.78;48.79;97243.65;128039;1092;25992;-93
2021/06/14 09:11:04;;;;;;;6.30;2.73;;;;;;;18.51;49.94;97242.01;127756;1093;114288;-91
2021/06/14 09:13:36;;;;;;;6.88;2.63;;;;;;;18.73;50.06;97231.17;127906;1093;30076;-93
2021/06/14 09:16:11;;;;;;;5.93;2.33;;;;;;;18.91;50.60;97232.75;127929;1092;113495;-93
2021/06/14 09:18:44;;;;;;;25.10;6.45;;;;;;;18.96;50.17;97227.20;128088;1093;25188;-92
2021/06/14 09:21:33;;;;;;;7.98;2.58;;;;;;;19.22;51.02;97221.81;127867;1093;114497;-90
2021/06/14 09:24:06;;;;;;;5.53;2.30;;;;;;;19.67;51.87;97231.38;127897;1093;25955;-90
2021/06/14 09:26:39;;;;;;;8.23;2.80;;;;;;;19.56;49.19;97222.86;127908;1093;25132;-91
2021/06/14 09:29:23;;;;;;;5.15;2.58;;;;;;;18.75;49.26;97230.86;128249;1093;113516;-89
2021/06/14 09:32:00;;;;;;;7.68;3.18;;;;;;;18.20;49.78;97231.37;128521;1093;25740;-92
2021/06/14 09:34:37;;;;;;;7.58;2.50;;;;;;;17.86;50.88;97229.34;127771;1092;113491;-94
2021/06/14 09:37:10;;;;;;;6.00;2.50;;;;;;;17.87;51.29;97218.30;127897;1093;42930;-92
2021/06/14 09:39:44;;;;;;;9.08;2.93;;;;;;;17.97;51.96;97206.51;127830;1092;113805;-92
2021/06/14 09:42:18;;;;;;;5.65;2.58;;;;;;;18.19;51.24;97209.11;127868;1093;24348;-92
2021/06/14 09:44:51;;;;;;;6.40;2.40;;;;;;;18.45;52.61;97208.38;127842;1091;27191;-93
2021/06/14 09:47:30;;;;;;;6.23;2.20;;;;;;;18.43;50.73;97202.50;127704;1093;113455;-94
2021/06/14 09:50:07;;;;;;;5.95;2.83;;;;;;;18.07;51.21;97206.23;127861;1092;26758;-92
2021/06/14 09:52:39;;;;;;;7.08;2.53;;;;;;;17.88;51.30;97236.00;127818;1093;113601;-92
2021/06/14 09:55:15;;;;;;;5.65;2.70;;;;;;;17.84;51.95;97218.14;127929;1093;24384;-91
2021/06/14 09:57:47;;;;;;;3.98;2.13;;;;;;;18.16;52.44;97223.16;127770;1093;113730;-90
2021/06/14 10:00:21;;;;;;;8.80;3.28;;;;;;;18.18;51.21;97217.48;127844;1093;32393;-91
2021/06/14 10:02:59;;;;;;;3.60;2.28;;;;;;;18.23;51.37;97220.00;128029;1093;24400;-90
2021/06/14 10:05:30;;;;;;;6.48;2.80;;;;;;;18.27;52.22;97215.58;127811;1093;112734;-91
2021/06/14 10:08:06;;;;;;;7.48;2.15;;;;;;;18.36;51.22;97219.88;127854;1093;24095;-92
2021/06/14 10:10:42;;;;;;;7.33;2.73;;;;;;;18.52;51.73;97211.36;127800;1093;113545;-92
2021/06/14 10:13:15;;;;;;;5.68;2.35;;;;;;;18.64;51.73;97211.57;127852;1093;23324;-93
2021/06/14 10:15:47;;;;;;;5.60;2.38;;;;;;;18.67;51.39;97213.62;127751;1093;113859;-93
2021/06/14 10:18:34;;;;;;;4.50;2.00;;;;;;;18.63;51.29;97212.64;127856;1093;25911;-94
2021/06/14 10:21:08;;;;;;;2.83;1.70;;;;;;;18.75;51.35;97218.22;127775;1093;48975;-92
2021/06/14 10:23:41;;;;;;;3.53;1.40;;;;;;;18.93;50.56;97198.29;127806;1093;113365;-92
2021/06/14 10:26:15;;;;;;;2.68;1.23;;;;;;;19.22;51.07;97197.62;127857;1093;27856;-94
2021/06/14 10:28:48;;;;;;;2.75;1.15;;;;;;;19.48;50.53;97194.08;127755;1093;113541;-93
2021/06/14 10:31:21;;;;;;;4.25;1.43;;;;;;;19.55;50.09;97194.39;127846;1093;25878;-92
2021/06/14 10:33:55;;;;;;;3.05;1.50;;;;;;;19.56;49.69;97198.66;127762;1093;113764;-91
2021/06/14 10:36:29;;;;;;;6.35;1.85;;;;;;;19.50;49.66;97203.41;127910;1093;26529;-91
2021/06/14 10:39:03;;;;;;;5.08;1.30;;;;;;;19.26;48.42;97208.52;127933;1093;26319;-92
2021/06/14 10:41:35;;;;;;;6.30;1.90;;;;;;;19.10;48.12;97196.69;127746;1093;113497;-93
2021/06/14 10:44:08;;;;;;;4.25;1.48;;;;;;;19.01;47.54;97194.03;127833;1093;25447;-93
2021/06/14 10:46:46;;;;;;;1.95;1.30;;;;;;;19.05;49.19;97196.86;127787;1093;113554;-94
2021/06/14 10:49:18;;;;;;;3.65;1.40;;;;;;;19.32;49.69;97190.33;127879;1093;29789;-93
2021/06/14 10:51:59;;;;;;;1.95;1.25;;;;;;;19.45;49.19;97198.20;127766;1093;114702;-93
2021/06/14 10:54:41;;;;;;;2.15;1.25;;;;;;;19.34;47.61;97196.17;127857;1093;23587;-93
2021/06/14 10:57:14;;;;;;;1.93;0.95;;;;;;;19.11;46.52;97198.27;127941;1093;28029;-93
2021/06/14 10:59:47;;;;;;;1.28;1.05;;;;;;;18.90;45.63;97188.19;127779;1093;113490;-93
2021/06/14 11:02:22;;;;;;;1.93;0.93;;;;;;;18.80;46.89;97193.08;127810;1093;31874;-93
2021/06/14 11:05:03;;;;;;;1.30;1.15;;;;;;;18.83;46.94;97185.17;127672;1092;112540;-94
2021/06/14 11:07:35;;;;;;;2.43;1.23;;;;;;;18.97;46.90;97179.63;127825;1093;32357;-94
2021/06/14 11:10:16;;;;;;;2.05;1.33;;;;;;;19.19;47.39;97173.28;127820;1093;114409;-95
2021/06/14 11:12:48;;;;;;;5.48;1.53;;;;;;;19.26;46.45;97166.29;127892;1093;26802;-93
2021/06/14 11:15:33;;;;;;;3.60;1.33;;;;;;;19.13;46.28;97155.73;127847;1093;28462;-94
2021/06/14 11:18:09;;;;;;;3.43;1.60;;;;;;;19.03;45.89;97156.09;127717;1092;113422;-92
2021/06/14 11:20:41;;;;;;;6.90;1.90;;;;;;;19.10;46.71;97159.06;127904;1093;26375;-93
2021/06/14 11:23:23;;;;;;;2.00;1.23;;;;;;;19.44;47.42;97158.98;127820;1093;114289;-92
2021/06/14 11:25:57;;;;;;;3.50;1.13;;;;;;;19.77;47.23;97147.64;127854;1093;44745;-93
2021/06/14 11:28:35;;;;;;;3.75;1.33;;;;;;;20.02;46.93;97149.41;127747;1093;114134;-94
2021/06/14 11:31:18;;;;;;;2.48;1.23;;;;;;;20.11;46.12;97138.56;127828;1093;35709;-93
2021/06/14 11:33:52;;;;;;;2.40;1.30;;;;;;;19.94;46.23;97147.53;127769;1093;112887;-95
2021/06/14 11:36:25;;;;;;;3.68;1.18;;;;;;;19.82;45.92;97150.92;127895;1093;29013;-95
2021/06/14 11:39:13;;;;;;;2.10;1.35;;;;;;;19.63;46.09;97153.23;127856;1093;25174;-93
2021/06/14 11:41:45;;;;;;;3.15;1.55;;;;;;;19.72;46.82;97150.52;127735;1093;114202;-94
2021/06/14 11:44:28;;;;;;;2.53;1.40;;;;;;;19.91;46.98;97147.41;127829;1093;27324;-94
2021/06/14 11:47:11;;;;;;;3.05;1.30;;;;;;;20.08;47.60;97144.61;127802;1093;113534;-94
2021/06/14 11:49:45;;;;;;;2.25;1.30;;;;;;;20.30;46.91;97151.60;127881;1093;24864;-89